Time;durP1;ratioP1;P1;durP2;ratioP2;P2;SDS_P1;SDS_P2;PMS_P1;PMS_P2;Temp;Humidity;BMP_temperature;BMP_pressure;BME280_temperature;BME280_humidity;BME280_pressure;Samples;Min_cycle;Max_cycle;Signal;HPM_P1;HPM_P2
2022/12/24 00:00:12;;;;;;;1.80;1.57;;;;;;;8.36;100.00;96280.34;5028369;28;20523;-73
2022/12/24 00:02:40;;;;;;;3.00;1.90;;;;;;;8.33;100.00;96282.56;5027852;28;20753;-71
2022/12/24 00:05:08;;;;;;;2.00;1.57;;;;;;;8.31;100.00;96290.69;4987117;28;20231;-73
2022/12/24 00:07:36;;;;;;;4.17;3.50;;;;;;;8.29;100.00;96302.41;5023287;28;20226;-71
2022/12/24 00:10:04;;;;;;;4.27;2.30;;;;;;;8.32;100.00;96315.22;5013355;28;20907;-72
2022/12/24 00:12:32;;;;;;;2.60;1.13;;;;;;;8.36;100.00;96319.94;5030123;28;20655;-70
2022/12/24 00:15:01;;;;;;;3.67;3.23;;;;;;;8.46;100.00;96313.50;5027314;28;20421;-71
2022/12/24 00:17:29;;;;;;;1.70;1.60;;;;;;;8.53;100.00;96315.22;5029353;28;20227;-71
2022/12/24 00:19:56;;;;;;;2.40;2.20;;;;;;;8.52;100.00;96312.78;4988276;28;21429;-72
2022/12/24 00:22:24;;;;;;;4.17;1.83;;;;;;;8.50;100.00;96302.41;5025582;28;20214;-68
2022/12/24 00:24:51;;;;;;;2.93;1.87;;;;;;;8.54;100.00;96308.94;5027815;28;20721;-72
2022/12/24 00:27:19;;;;;;;3.50;2.43;;;;;;;8.50;100.00;96309.50;5013617;28;20246;-72
2022/12/24 00:29:46;;;;;;;5.57;3.13;;;;;;;8.56;100.00;96308.75;5026594;28;20780;-72
2022/12/24 00:32:15;;;;;;;3.97;1.67;;;;;;;8.61;100.00;96301.06;5028279;28;20208;-71
2022/12/24 00:34:43;;;;;;;4.33;1.77;;;;;;;8.56;100.00;96300.00;4989170;28;21471;-72
2022/12/24 00:37:11;;;;;;;5.47;2.10;;;;;;;8.58;100.00;96308.56;5024377;28;20223;-72
2022/12/24 00:39:38;;;;;;;1.93;1.47;;;;;;;8.53;100.00;96303.88;5027252;28;20207;-70
2022/12/24 00:42:06;;;;;;;5.43;2.07;;;;;;;8.49;100.00;96308.72;5007935;28;20218;-72
2022/12/24 00:44:33;;;;;;;5.23;2.17;;;;;;;8.51;100.00;96311.97;5021727;28;20204;-72
2022/12/24 00:47:01;;;;;;;5.87;1.97;;;;;;;8.54;100.00;96326.63;5029344;28;20428;-72
2022/12/24 00:49:38;;;;;;;6.73;2.33;;;;;;;8.43;100.00;96304.16;4999860;28;20207;-72
2022/12/24 00:52:05;;;;;;;5.93;2.50;;;;;;;8.57;100.00;96328.03;5017996;28;20240;-71
2022/12/24 00:54:33;;;;;;;2.27;1.93;;;;;;;8.51;100.00;96322.53;4979010;28;21611;-72
2022/12/24 00:57:00;;;;;;;5.03;2.23;;;;;;;8.56;100.00;96331.69;5006133;28;20452;-71
2022/12/24 00:59:28;;;;;;;2.03;1.60;;;;;;;8.45;100.00;96328.56;5011385;28;20219;-71
2022/12/24 01:01:55;;;;;;;2.13;1.73;;;;;;;8.47;100.00;96339.72;5008785;28;20298;-71
2022/12/24 01:07:10;;;;;;;2.40;2.07;;;;;;;8.30;100.00;96347.09;5016239;28;20333;-72
2022/12/24 01:09:38;;;;;;;5.90;2.20;;;;;;;8.25;100.00;96352.13;5018542;28;20203;-73
2022/12/24 01:12:05;;;;;;;4.73;2.10;;;;;;;8.17;100.00;96353.09;4991306;28;20488;-72
2022/12/24 01:14:33;;;;;;;3.20;1.63;;;;;;;8.29;100.00;96345.47;5020424;28;20210;-71
2022/12/24 01:17:00;;;;;;;3.50;1.53;;;;;;;8.26;100.00;96351.13;5007890;28;20223;-72
2022/12/24 01:19:28;;;;;;;3.77;2.03;;;;;;;8.19;100.00;96355.53;5027112;28;20564;-71
2022/12/24 01:21:56;;;;;;;2.73;1.80;;;;;;;8.22;100.00;96357.81;5012319;28;21006;-72
2022/12/24 01:24:25;;;;;;;2.00;1.80;;;;;;;8.15;100.00;96360.38;5024778;28;20211;-72
2022/12/24 01:26:52;;;;;;;4.10;2.87;;;;;;;8.10;100.00;96358.28;4986683;28;20235;-72
2022/12/24 01:29:20;;;;;;;2.33;1.77;;;;;;;8.15;100.00;96368.28;5024862;28;20452;-71
2022/12/24 01:31:47;;;;;;;3.40;2.00;;;;;;;8.09;100.00;96369.84;5009557;28;20215;-71
2022/12/24 01:34:15;;;;;;;3.10;1.73;;;;;;;8.07;100.00;96369.22;5028627;28;20204;-71
2022/12/24 01:36:42;;;;;;;2.93;2.20;;;;;;;8.11;100.00;96385.50;5010034;28;20468;-70
2022/12/24 01:39:10;;;;;;;4.77;1.77;;;;;;;8.10;100.00;96384.66;5028592;28;20211;-72
2022/12/24 01:44:26;;;;;;;6.83;2.33;;;;;;;8.15;100.00;96396.50;5023783;28;20596;-71
2022/12/24 01:47:07;;;;;;;3.37;2.30;;;;;;;8.21;100.00;96396.56;5011105;28;20607;-71
2022/12/24 01:49:35;;;;;;;3.77;1.70;;;;;;;8.21;100.00;96393.91;5021325;28;20406;-69
2022/12/24 01:52:05;;;;;;;2.87;1.70;;;;;;;8.17;100.00;96411.13;5010134;28;20213;-72
2022/12/24 01:54:35;;;;;;;4.60;2.40;;;;;;;8.19;100.00;96413.59;5025053;28;20207;-73
2022/12/24 01:57:07;;;;;;;2.93;1.90;;;;;;;8.20;100.00;96416.03;4987948;28;20259;-70
2022/12/24 01:59:36;;;;;;;4.30;2.10;;;;;;;8.16;100.00;96429.81;5022514;28;20249;-72
2022/12/24 02:02:04;;;;;;;3.87;2.30;;;;;;;8.03;100.00;96420.72;5007908;28;20219;-72
2022/12/24 02:04:37;;;;;;;5.20;2.20;;;;;;;8.10;100.00;96418.97;5025682;28;20495;-70
2022/12/24 02:07:04;;;;;;;5.07;2.37;;;;;;;7.98;100.00;96423.09;5012037;28;20227;-73
2022/12/24 02:09:33;;;;;;;4.20;2.20;;;;;;;7.90;100.00;96423.22;5025160;28;20204;-71
2022/12/24 02:12:01;;;;;;;4.27;2.20;;;;;;;7.82;100.00;96414.44;4987922;28;20212;-72
2022/12/24 02:14:31;;;;;;;5.30;2.63;;;;;;;7.81;100.00;96418.06;5023351;28;20203;-72
2022/12/24 02:17:02;;;;;;;4.43;2.60;;;;;;;7.79;100.00;96422.72;5022945;28;20539;-72
2022/12/24 02:20:19;;;;;;;2.20;1.53;;;;;;;7.71;100.00;96422.78;5008732;28;20227;-70
2022/12/24 02:23:03;;;;;;;4.13;2.13;;;;;;;7.68;100.00;96434.53;5008853;28;21403;-71
2022/12/24 02:25:45;;;;;;;5.57;2.37;;;;;;;7.80;100.00;96431.44;5023606;28;20204;-70
2022/12/24 02:28:16;;;;;;;3.77;2.53;;;;;;;7.81;100.00;96431.25;4990147;28;20218;-71
2022/12/24 02:30:48;;;;;;;3.83;2.00;;;;;;;7.80;100.00;96442.81;5020150;28;20735;-71
2022/12/24 02:33:23;;;;;;;4.73;2.00;;;;;;;7.81;100.00;96446.25;5013378;28;20236;-72
2022/12/24 02:35:59;;;;;;;2.17;1.57;;;;;;;7.80;100.00;96441.97;5026768;28;20694;-72
2022/12/24 02:38:29;;;;;;;1.90;1.60;;;;;;;7.67;100.00;96455.81;5009401;28;20214;-74
2022/12/24 02:41:00;;;;;;;3.00;2.20;;;;;;;7.80;100.00;96448.09;5027209;28;20216;-71
2022/12/24 02:43:32;;;;;;;4.23;2.33;;;;;;;7.72;100.00;96450.00;4988051;28;20207;-72
2022/12/24 02:46:05;;;;;;;4.23;2.67;;;;;;;7.75;100.00;96449.63;5005303;28;20232;-71
2022/12/24 02:48:33;;;;;;;3.03;1.93;;;;;;;7.64;100.00;96459.66;5006624;28;20398;-70
2022/12/24 02:51:07;;;;;;;2.03;1.83;;;;;;;7.57;100.00;96464.00;5026607;28;20462;-71
2022/12/24 02:53:35;;;;;;;3.67;2.03;;;;;;;7.49;100.00;96469.38;5004660;28;20206;-72
2022/12/24 02:56:16;;;;;;;4.50;2.10;;;;;;;7.49;100.00;96464.91;5022789;28;20223;-72
2022/12/24 02:58:54;;;;;;;6.03;1.80;;;;;;;7.40;100.00;96463.38;5027278;28;20203;-70
2022/12/24 03:01:31;;;;;;;7.73;2.00;;;;;;;7.23;100.00;96465.38;4982927;28;20596;-71
2022/12/24 03:04:07;;;;;;;4.07;1.90;;;;;;;7.18;100.00;96475.59;4988107;28;20224;-73
2022/12/24 03:06:40;;;;;;;3.77;2.00;;;;;;;7.23;100.00;96481.97;5025938;28;20705;-72
2022/12/24 03:09:14;;;;;;;2.80;1.90;;;;;;;7.25;100.00;96479.19;5024612;28;20677;-72
2022/12/24 03:11:45;;;;;;;2.70;1.87;;;;;;;7.20;100.00;96487.63;5024387;28;20208;-73
2022/12/24 03:14:14;;;;;;;4.37;2.47;;;;;;;7.21;100.00;96493.72;5025727;28;20585;-74
2022/12/24 03:16:44;;;;;;;3.53;2.40;;;;;;;7.14;100.00;96493.59;5023602;28;20227;-71
2022/12/24 03:19:11;;;;;;;7.97;2.30;;;;;;;7.13;100.00;96485.88;4984996;28;20219;-71
2022/12/24 03:21:41;;;;;;;2.67;1.90;;;;;;;7.12;100.00;96487.69;5020483;28;20196;-73
2022/12/24 03:24:09;;;;;;;4.67;1.90;;;;;;;7.16;100.00;96499.50;5029030;28;20302;-73
2022/12/24 03:26:38;;;;;;;2.20;1.90;;;;;;;7.23;100.00;96510.16;5021053;28;20224;-71
2022/12/24 03:29:07;;;;;;;5.00;2.57;;;;;;;7.19;100.00;96506.22;5023699;28;20200;-71
2022/12/24 03:31:43;;;;;;;4.07;1.90;;;;;;;7.15;100.00;96507.59;5027677;28;20238;-72
2022/12/24 03:34:12;;;;;;;4.40;1.90;;;;;;;7.08;100.00;96507.50;4987116;28;20509;-67
2022/12/24 03:36:39;;;;;;;1.97;1.67;;;;;;;7.09;100.00;96503.88;5028842;28;20269;-69
2022/12/24 03:39:07;;;;;;;3.53;2.10;;;;;;;7.13;100.00;96515.69;5030206;28;20204;-69
2022/12/24 03:41:34;;;;;;;2.53;1.87;;;;;;;7.18;100.00;96515.13;5027246;28;20613;-69
2022/12/24 03:44:02;;;;;;;2.90;1.97;;;;;;;7.33;100.00;96531.78;5030683;28;20839;-66
2022/12/24 03:46:29;;;;;;;3.80;2.03;;;;;;;7.29;100.00;96529.69;5006266;28;20235;-70
2022/12/24 03:48:59;;;;;;;5.80;2.10;;;;;;;7.23;100.00;96526.78;4984680;28;20233;-67
2022/12/24 03:51:27;;;;;;;2.43;1.90;;;;;;;7.19;100.00;96532.56;5017654;28;20216;-68
2022/12/24 03:53:57;;;;;;;3.93;1.83;;;;;;;7.20;100.00;96521.06;5028013;28;20203;-66
2022/12/24 03:56:24;;;;;;;2.37;2.17;;;;;;;7.19;100.00;96520.22;5030039;28;20231;-70
2022/12/24 03:58:52;;;;;;;3.47;1.60;;;;;;;7.20;100.00;96524.50;5029509;28;20192;-67
2022/12/24 04:01:20;;;;;;;2.60;1.97;;;;;;;7.18;100.00;96531.78;5028227;28;20286;-68
2022/12/24 04:03:48;;;;;;;4.30;2.47;;;;;;;7.31;100.00;96528.53;4985796;28;20215;-68
2022/12/24 04:06:17;;;;;;;5.90;2.70;;;;;;;7.24;100.00;96538.16;5018909;28;20227;-69
2022/12/24 04:08:45;;;;;;;3.80;2.70;;;;;;;7.22;100.00;96533.03;5027041;28;20216;-68
2022/12/24 04:11:14;;;;;;;3.87;2.57;;;;;;;7.38;100.00;96526.81;5028799;28;20501;-70
2022/12/24 04:13:42;;;;;;;6.80;2.13;;;;;;;7.48;100.00;96523.91;5033178;28;20314;-67
2022/12/24 04:16:11;;;;;;;3.80;2.00;;;;;;;7.41;100.00;96545.88;5027540;28;20513;-70
2022/12/24 04:18:40;;;;;;;4.70;2.45;;;;;;;7.23;100.00;96553.13;5024680;28;20954;-71
2022/12/24 04:21:08;;;;;;;5.33;1.90;;;;;;;7.21;100.00;96556.94;4977994;28;20333;-72
2022/12/24 04:23:39;;;;;;;3.92;2.60;;;;;;;7.13;100.00;96568.38;5022813;28;20451;-70
2022/12/24 04:26:08;;;;;;;4.23;2.53;;;;;;;7.11;100.00;96562.47;5023887;28;20727;-68
2022/12/24 04:28:36;;;;;;;3.43;2.20;;;;;;;7.11;100.00;96570.38;5024193;28;20557;-68
2022/12/24 04:31:05;;;;;;;3.97;2.30;;;;;;;6.98;100.00;96564.84;5022628;28;20840;-69
2022/12/24 04:33:33;;;;;;;4.43;2.40;;;;;;;7.01;100.00;96570.59;5006682;28;20613;-68
2022/12/24 04:36:02;;;;;;;3.70;2.23;;;;;;;6.99;100.00;96577.84;4963508;28;20745;-69
2022/12/24 04:38:30;;;;;;;2.40;2.20;;;;;;;7.12;100.00;96573.81;5028877;28;20207;-70
2022/12/24 04:41:01;;;;;;;3.97;2.40;;;;;;;7.07;100.00;96575.16;5026610;28;20204;-68
2022/12/24 04:43:28;;;;;;;2.63;2.00;;;;;;;7.04;100.00;96572.88;5031116;28;20207;-70
2022/12/24 04:45:56;;;;;;;3.80;2.43;;;;;;;7.13;100.00;96578.91;5022694;28;20713;-67
2022/12/24 04:48:24;;;;;;;3.00;2.07;;;;;;;7.18;100.00;96575.72;5005241;28;20267;-70
2022/12/24 04:50:51;;;;;;;3.47;1.73;;;;;;;7.13;100.00;96572.81;4983615;28;20208;-69
2022/12/24 04:53:19;;;;;;;5.73;2.07;;;;;;;7.04;100.00;96590.50;4996042;28;20245;-70
2022/12/24 04:55:46;;;;;;;3.13;2.20;;;;;;;6.92;100.00;96580.38;5021053;28;20426;-68
2022/12/24 04:58:15;;;;;;;4.23;2.27;;;;;;;6.91;100.00;96591.91;5026089;28;20199;-69
2022/12/24 05:00:43;;;;;;;4.65;2.13;;;;;;;6.89;100.00;96601.78;5023759;28;20431;-67
2022/12/24 05:03:10;;;;;;;7.33;2.47;;;;;;;6.95;100.00;96592.38;5028150;28;20210;-70
2022/12/24 05:05:38;;;;;;;4.77;2.40;;;;;;;7.04;100.00;96606.31;4989532;28;20208;-68
2022/12/24 05:08:06;;;;;;;4.57;2.40;;;;;;;6.99;100.00;96612.09;5008103;28;20318;-68
2022/12/24 05:10:34;;;;;;;5.60;2.60;;;;;;;7.00;100.00;96613.72;4994921;28;20216;-70
2022/12/24 05:13:02;;;;;;;5.77;2.17;;;;;;;6.91;100.00;96626.13;5031485;28;20203;-69
2022/12/24 05:15:31;;;;;;;2.90;1.80;;;;;;;6.95;100.00;96624.78;5009018;28;20299;-70
2022/12/24 05:17:58;;;;;;;5.17;2.10;;;;;;;6.94;100.00;96625.78;5027275;28;20215;-72
2022/12/24 05:20:26;;;;;;;7.30;2.47;;;;;;;6.86;100.00;96627.66;5009263;28;20200;-69
2022/12/24 05:28:24;;;;;;;2.67;1.63;;;;;;;6.51;100.00;96647.25;5031344;28;20237;-70
2022/12/24 05:30:53;;;;;;;5.23;2.10;;;;;;;6.78;100.00;96639.06;5024406;28;20203;-68
2022/12/24 05:33:21;;;;;;;6.53;2.63;;;;;;;6.70;100.00;96650.44;5022814;28;20204;-70
2022/12/24 05:35:51;;;;;;;2.17;1.97;;;;;;;6.60;100.00;96655.09;5008761;28;20295;-69
2022/12/24 05:38:18;;;;;;;3.87;2.13;;;;;;;6.54;100.00;96664.50;5022924;28;21006;-70
2022/12/24 05:40:46;;;;;;;5.27;2.30;;;;;;;6.81;100.00;96660.56;4985868;28;20212;-68
2022/12/24 05:43:14;;;;;;;5.90;2.67;;;;;;;6.90;100.00;96648.19;5025457;28;20446;-69
2022/12/24 05:45:42;;;;;;;4.03;2.30;;;;;;;6.82;100.00;96664.03;5025535;28;21198;-69
2022/12/24 05:48:11;;;;;;;3.90;2.53;;;;;;;6.84;100.00;96667.31;5029254;28;20223;-68
2022/12/24 05:50:39;;;;;;;3.43;2.30;;;;;;;6.72;100.00;96666.88;5010503;28;20200;-68
2022/12/24 05:53:07;;;;;;;6.80;2.70;;;;;;;6.64;100.00;96667.78;5028275;28;20208;-68
2022/12/24 05:55:35;;;;;;;4.27;2.80;;;;;;;6.54;100.00;96682.13;4993800;28;20211;-70
2022/12/24 05:58:02;;;;;;;4.80;2.07;;;;;;;6.45;100.00;96684.78;5030311;28;20261;-70
2022/12/24 06:00:30;;;;;;;6.53;3.20;;;;;;;6.38;100.00;96696.97;5027482;28;20191;-70
2022/12/24 06:02:57;;;;;;;5.23;2.73;;;;;;;6.35;100.00;96692.03;5003752;28;20207;-68
2022/12/24 06:05:27;;;;;;;3.80;2.67;;;;;;;6.35;100.00;96706.03;5011401;28;20215;-68
2022/12/24 06:07:54;;;;;;;4.20;2.10;;;;;;;6.32;100.00;96695.84;5018422;28;20257;-71
2022/12/24 06:10:22;;;;;;;3.38;2.13;;;;;;;6.28;100.00;96704.22;4994032;28;20105;-71
2022/12/24 06:12:49;;;;;;;4.03;2.33;;;;;;;6.28;100.00;96712.97;5022924;28;20563;-67
2022/12/24 06:15:17;;;;;;;8.87;3.30;;;;;;;6.32;100.00;96718.69;5030225;28;20867;-70
2022/12/24 06:17:50;;;;;;;7.15;2.72;;;;;;;6.66;100.00;96709.69;5006625;28;20532;-69
2022/12/24 06:20:18;;;;;;;5.80;3.57;;;;;;;6.62;100.00;96708.41;5014828;28;20222;-68
2022/12/24 06:22:47;;;;;;;8.47;3.17;;;;;;;6.58;100.00;96704.47;5027046;28;20207;-67
2022/12/24 06:25:14;;;;;;;4.30;2.27;;;;;;;6.61;100.00;96701.50;5032565;28;20211;-70
2022/12/24 06:27:42;;;;;;;5.83;2.50;;;;;;;6.58;100.00;96712.38;4991153;28;20231;-68
2022/12/24 06:30:10;;;;;;;7.37;2.97;;;;;;;6.62;100.00;96711.03;5022762;28;20220;-69
2022/12/24 06:32:38;;;;;;;8.80;6.10;;;;;;;6.49;100.00;96707.16;5002554;28;20203;-68
2022/12/24 06:35:06;;;;;;;4.27;2.80;;;;;;;6.44;100.00;96706.00;5009403;28;20351;-70
2022/12/24 06:37:33;;;;;;;7.90;2.50;;;;;;;6.54;100.00;96703.19;5008504;28;20219;-68
2022/12/24 06:40:02;;;;;;;3.73;2.63;;;;;;;6.46;100.00;96696.97;5026217;28;21220;-70
2022/12/24 06:42:30;;;;;;;5.33;2.33;;;;;;;6.40;100.00;96702.06;4987894;28;20226;-69
2022/12/24 06:44:57;;;;;;;3.00;2.40;;;;;;;6.40;100.00;96694.97;5019132;28;20994;-68
2022/12/24 06:47:34;;;;;;;5.47;2.30;;;;;;;6.43;100.00;96702.53;5018091;28;20346;-68
2022/12/24 06:50:02;;;;;;;5.17;3.00;;;;;;;6.48;100.00;96710.75;5003165;28;20994;-70
2022/12/24 06:52:29;;;;;;;5.70;2.03;;;;;;;6.51;100.00;96713.06;5011226;28;21072;-67
2022/12/24 06:54:57;;;;;;;4.17;2.40;;;;;;;6.43;100.00;96718.31;5024996;28;20196;-70
2022/12/24 06:57:26;;;;;;;2.53;2.30;;;;;;;6.41;100.00;96722.13;4993902;28;20234;-69
2022/12/24 06:59:53;;;;;;;6.17;2.57;;;;;;;6.34;100.00;96728.06;5018390;28;20208;-70
2022/12/24 07:02:21;;;;;;;7.00;2.70;;;;;;;6.36;100.00;96739.25;5027191;28;20211;-71
2022/12/24 07:04:48;;;;;;;3.70;2.47;;;;;;;6.37;100.00;96733.00;5026742;28;21212;-68
2022/12/24 07:07:16;;;;;;;4.73;2.17;;;;;;;6.40;100.00;96750.25;4996172;28;20234;-72
2022/12/24 07:09:43;;;;;;;5.23;2.47;;;;;;;6.49;100.00;96748.41;5031508;28;20227;-72
2022/12/24 07:12:11;;;;;;;4.17;2.97;;;;;;;6.79;100.00;96748.66;4998874;28;20824;-71
2022/12/24 07:14:40;;;;;;;7.07;2.77;;;;;;;6.99;100.00;96750.88;5026460;28;20204;-71
2022/12/24 07:17:09;;;;;;;5.97;2.73;;;;;;;6.98;100.00;96754.50;4994478;28;20207;-67
2022/12/24 07:19:36;;;;;;;7.23;3.20;;;;;;;6.95;100.00;96758.31;5008646;28;20799;-67
2022/12/24 07:22:04;;;;;;;2.60;2.30;;;;;;;6.95;100.00;96756.47;5022460;28;20205;-67
2022/12/24 07:24:39;;;;;;;4.83;2.63;;;;;;;7.06;100.00;96765.00;4999528;28;20199;-67
2022/12/24 07:27:07;;;;;;;3.87;2.13;;;;;;;6.97;100.00;96755.47;5012415;28;20228;-67
2022/12/24 07:29:35;;;;;;;3.93;2.17;;;;;;;7.04;100.00;96765.16;5030138;28;20965;-69
2022/12/24 07:32:04;;;;;;;3.60;2.13;;;;;;;6.99;100.00;96759.59;5028291;28;20515;-71
2022/12/24 07:34:32;;;;;;;4.77;2.40;;;;;;;7.00;100.00;96774.41;4990542;28;20204;-70
2022/12/24 07:36:59;;;;;;;7.20;2.60;;;;;;;7.06;100.00;96779.00;5026229;28;20239;-70
2022/12/24 07:39:27;;;;;;;7.47;3.17;;;;;;;7.01;100.00;96786.59;5010764;28;20204;-71
2022/12/24 07:41:54;;;;;;;5.40;3.55;;;;;;;7.04;100.00;96783.63;5015845;28;20435;-70
2022/12/24 07:44:22;;;;;;;7.10;3.13;;;;;;;7.04;100.00;96794.16;5013441;28;20454;-70
2022/12/24 07:46:50;;;;;;;4.57;2.57;;;;;;;7.03;100.00;96792.50;5025963;28;20223;-70
2022/12/24 07:49:19;;;;;;;5.50;3.03;;;;;;;7.00;100.00;96799.91;4995120;28;20288;-69
2022/12/24 07:51:46;;;;;;;4.77;2.93;;;;;;;6.95;100.00;96803.09;5023748;28;20211;-69
2022/12/24 07:54:14;;;;;;;7.63;3.43;;;;;;;6.94;100.00;96802.25;4973872;28;20699;-70
2022/12/24 07:56:42;;;;;;;5.37;3.30;;;;;;;6.99;100.00;96804.38;5029148;28;20239;-70
2022/12/24 07:59:12;;;;;;;4.53;3.33;;;;;;;7.02;100.00;96811.13;5009803;28;20600;-72
2022/12/24 08:01:40;;;;;;;4.33;3.40;;;;;;;6.99;100.00;96814.91;5029687;28;20208;-70
2022/12/24 08:04:08;;;;;;;4.87;3.37;;;;;;;7.01;100.00;96809.47;4994212;28;20798;-72
2022/12/24 08:06:37;;;;;;;7.33;3.90;;;;;;;6.99;100.00;96808.81;5022463;28;20857;-69
2022/12/24 08:09:05;;;;;;;3.53;3.03;;;;;;;6.90;100.00;96810.69;5010573;28;20883;-72
2022/12/24 08:11:32;;;;;;;8.17;3.07;;;;;;;6.77;100.00;96809.38;5036021;28;20630;-72
2022/12/24 08:14:00;;;;;;;3.83;3.40;;;;;;;6.75;100.00;96824.53;5014344;28;20212;-71
2022/12/24 08:16:27;;;;;;;6.20;3.53;;;;;;;6.79;100.00;96820.56;4993481;28;20262;-70
2022/12/24 08:18:55;;;;;;;6.37;3.67;;;;;;;6.77;100.00;96817.28;5011964;28;20207;-70
2022/12/24 08:21:22;;;;;;;3.90;3.53;;;;;;;6.79;100.00;96815.28;4983517;28;20216;-72
2022/12/24 08:23:51;;;;;;;6.07;4.13;;;;;;;6.86;100.00;96820.72;5034356;28;20282;-72
2022/12/24 08:26:19;;;;;;;5.87;3.70;;;;;;;7.00;100.00;96805.19;5005087;28;20231;-70
2022/12/24 08:28:46;;;;;;;5.23;3.97;;;;;;;6.99;100.00;96814.09;5009541;28;20203;-71
2022/12/24 08:31:14;;;;;;;3.53;3.00;;;;;;;7.07;100.00;96817.50;5010586;28;20223;-71
2022/12/24 08:33:42;;;;;;;4.20;3.20;;;;;;;7.13;100.00;96821.28;5025411;28;20745;-70
2022/12/24 08:36:09;;;;;;;10.50;3.60;;;;;;;7.29;100.00;96830.09;4994297;28;20239;-72
2022/12/24 08:38:37;;;;;;;5.87;2.60;;;;;;;7.37;100.00;96833.53;5012086;28;20215;-71
2022/12/24 08:41:06;;;;;;;5.00;3.27;;;;;;;7.43;100.00;96829.41;5012408;28;20199;-72
2022/12/24 08:43:34;;;;;;;8.67;4.00;;;;;;;7.55;100.00;96837.72;5027693;28;20207;-70
2022/12/24 08:46:03;;;;;;;6.63;2.93;;;;;;;7.55;100.00;96836.91;5016191;28;20219;-71
2022/12/24 08:48:31;;;;;;;9.00;3.10;;;;;;;7.58;100.00;96841.84;5033620;28;20296;-71
2022/12/24 08:50:59;;;;;;;6.17;2.57;;;;;;;7.59;100.00;96851.38;4992724;28;20227;-71
2022/12/24 08:53:26;;;;;;;7.70;3.20;;;;;;;7.67;100.00;96853.97;5012498;28;20207;-72
2022/12/24 08:56:01;;;;;;;4.00;2.87;;;;;;;7.65;100.00;96864.72;5009457;28;21101;-71
2022/12/24 08:58:31;;;;;;;7.57;4.93;;;;;;;7.64;100.00;96868.34;5032146;28;20203;-69
2022/12/24 09:00:59;;;;;;;8.10;3.40;;;;;;;7.66;100.00;96870.78;5010057;28;20265;-71
2022/12/24 09:03:27;;;;;;;7.17;3.97;;;;;;;7.72;100.00;96867.44;5031449;28;20207;-69
2022/12/24 09:05:55;;;;;;;5.27;3.03;;;;;;;7.75;100.00;96864.47;4989982;28;22509;-71
2022/12/24 09:08:23;;;;;;;5.67;2.40;;;;;;;7.80;100.00;96875.34;5025216;28;20199;-70
2022/12/24 09:10:50;;;;;;;5.97;2.70;;;;;;;7.83;100.00;96879.44;4995723;28;20242;-70
2022/12/24 09:13:18;;;;;;;9.47;3.13;;;;;;;7.85;100.00;96887.19;5030956;28;20211;-69
2022/12/24 09:15:54;;;;;;;8.73;2.97;;;;;;;7.80;100.00;96882.41;5005349;28;20631;-71
2022/12/24 09:18:21;;;;;;;6.47;2.90;;;;;;;7.80;100.00;96887.69;5030570;28;20210;-72
2022/12/24 09:20:49;;;;;;;6.00;3.00;;;;;;;7.81;100.00;96892.81;4984774;28;20738;-69
2022/12/24 09:23:23;;;;;;;6.73;3.70;;;;;;;7.86;100.00;96887.00;5025377;28;20557;-71
2022/12/24 09:25:51;;;;;;;4.33;3.53;;;;;;;7.87;100.00;96896.53;4960062;28;20220;-70
2022/12/24 09:28:18;;;;;;;7.97;3.13;;;;;;;7.94;100.00;96891.41;5025346;28;20243;-71
2022/12/24 09:30:56;;;;;;;5.10;2.97;;;;;;;7.97;100.00;96891.88;5026118;28;20229;-71
2022/12/24 09:33:24;;;;;;;7.17;3.23;;;;;;;7.94;100.00;96886.13;5006241;28;20215;-71
2022/12/24 09:35:52;;;;;;;7.87;4.30;;;;;;;8.00;100.00;96890.69;5014713;28;20215;-71
2022/12/24 09:38:20;;;;;;;4.77;3.17;;;;;;;8.11;100.00;96886.84;5023623;28;20204;-70
2022/12/24 09:40:49;;;;;;;7.90;4.13;;;;;;;8.18;100.00;96886.97;4959051;28;20212;-69
2022/12/24 09:43:19;;;;;;;9.07;3.00;;;;;;;8.26;100.00;96889.53;5022123;28;20544;-71
2022/12/24 09:46:01;;;;;;;8.07;2.87;;;;;;;8.29;100.00;96898.91;4985077;28;20964;-72
2022/12/24 09:48:32;;;;;;;7.63;3.37;;;;;;;8.34;100.00;96902.69;5009891;28;20219;-72
2022/12/24 09:51:03;;;;;;;6.97;3.00;;;;;;;8.42;100.00;96885.97;5011475;28;20223;-70
2022/12/24 09:53:36;;;;;;;7.87;2.97;;;;;;;8.36;100.00;96895.41;5020739;28;20591;-70
2022/12/24 09:56:10;;;;;;;7.37;5.73;;;;;;;8.44;100.00;96897.16;4962672;28;20242;-73
2022/12/24 09:58:41;;;;;;;8.07;3.20;;;;;;;8.54;100.00;96899.59;5025788;28;20210;-72
2022/12/24 10:01:12;;;;;;;8.10;3.10;;;;;;;8.52;100.00;96896.28;5019149;28;20588;-73
2022/12/24 10:03:41;;;;;;;7.67;2.97;;;;;;;8.42;100.00;96895.69;4990418;28;20718;-71
2022/12/24 10:06:12;;;;;;;8.47;3.40;;;;;;;8.33;100.00;96890.47;5007705;28;20235;-71
2022/12/24 10:08:48;;;;;;;5.37;2.73;;;;;;;8.28;100.00;96894.63;5020704;28;21195;-71
2022/12/24 10:11:20;;;;;;;6.47;3.80;;;;;;;8.12;100.00;96901.69;4955038;28;20869;-70
2022/12/24 10:14:03;;;;;;;5.10;3.37;;;;;;;8.02;100.00;96887.91;5024024;28;20218;-72
2022/12/24 10:16:37;;;;;;;9.87;3.43;;;;;;;7.92;100.00;96896.03;5023061;28;20220;-70
2022/12/24 10:19:14;;;;;;;8.47;2.90;;;;;;;7.85;100.00;96905.66;4983544;28;20310;-70
2022/12/24 10:21:48;;;;;;;6.40;2.70;;;;;;;7.80;100.00;96895.59;5006992;28;20203;-71
2022/12/24 10:24:21;;;;;;;8.00;3.20;;;;;;;7.78;100.00;96893.16;4997906;28;20300;-70
2022/12/24 10:26:50;;;;;;;6.47;3.17;;;;;;;7.79;100.00;96897.44;4972259;28;20226;-71
2022/12/24 10:29:20;;;;;;;7.53;3.43;;;;;;;7.81;100.00;96897.25;5021894;28;20219;-69
2022/12/24 10:31:55;;;;;;;10.17;3.83;;;;;;;7.83;100.00;96913.72;5027375;28;20223;-69
2022/12/24 10:34:28;;;;;;;7.80;2.87;;;;;;;7.87;100.00;96901.81;5009430;28;20997;-71
2022/12/24 10:36:56;;;;;;;5.43;3.00;;;;;;;7.83;100.00;96911.06;5022172;28;20223;-72
2022/12/24 10:39:25;;;;;;;4.70;2.80;;;;;;;7.79;100.00;96905.34;4979649;28;20208;-71
2022/12/24 10:41:56;;;;;;;9.17;3.10;;;;;;;7.86;100.00;96902.00;4992112;28;20243;-70
2022/12/24 10:44:26;;;;;;;7.97;3.07;;;;;;;7.95;100.00;96912.34;5010635;28;20215;-71
2022/12/24 10:46:53;;;;;;;7.20;3.27;;;;;;;8.09;100.00;96910.75;5030650;28;20235;-71
2022/12/24 10:49:30;;;;;;;10.23;3.70;;;;;;;8.28;100.00;96921.88;5007787;28;20211;-69
2022/12/24 10:52:00;;;;;;;9.27;3.70;;;;;;;8.37;100.00;96923.44;5023372;28;20634;-70
2022/12/24 10:54:33;;;;;;;10.20;3.37;;;;;;;8.45;100.00;96908.53;4987845;28;20212;-71
2022/12/24 10:57:01;;;;;;;8.33;4.07;;;;;;;8.56;100.00;96910.81;5028397;28;20818;-70
2022/12/24 10:59:31;;;;;;;9.57;4.07;;;;;;;8.75;100.00;96903.38;4993487;28;20219;-71
2022/12/24 11:01:59;;;;;;;8.27;2.63;;;;;;;8.83;100.00;96904.13;5025593;28;20195;-71
2022/12/24 11:04:30;;;;;;;5.73;2.73;;;;;;;8.92;100.00;96899.59;5008152;28;20208;-70
2022/12/24 11:06:59;;;;;;;6.77;2.80;;;;;;;9.03;100.00;96887.72;5023556;28;20227;-69
2022/12/24 11:09:29;;;;;;;6.00;2.87;;;;;;;9.08;100.00;96893.28;5009450;28;20207;-69
2022/12/24 11:11:58;;;;;;;5.67;2.90;;;;;;;9.23;100.00;96890.66;5013638;28;20224;-69
2022/12/24 11:14:35;;;;;;;8.00;3.27;;;;;;;9.45;100.00;96896.03;4967622;28;20215;-70
2022/12/24 11:17:03;;;;;;;8.47;3.23;;;;;;;9.51;100.00;96897.94;5025646;28;20590;-69
2022/12/24 11:19:34;;;;;;;8.67;3.53;;;;;;;9.44;100.00;96901.50;5010248;28;20808;-70
2022/12/24 11:22:04;;;;;;;10.47;4.10;;;;;;;9.43;100.00;96902.50;5023390;28;20203;-70
2022/12/24 11:24:33;;;;;;;8.83;3.33;;;;;;;9.43;100.00;96908.63;5010959;28;20203;-71
2022/12/24 11:27:30;;;;;;;9.63;3.77;;;;;;;9.44;100.00;96907.59;5011731;28;20242;-70
2022/12/24 11:30:20;;;;;;;8.40;3.00;;;;;;;9.28;100.00;96908.63;4986461;28;20216;-72
2022/12/24 11:32:49;;;;;;;10.43;2.97;;;;;;;9.21;100.00;96905.06;4974324;28;20223;-70
2022/12/24 11:35:21;;;;;;;8.07;3.20;;;;;;;9.10;98.51;96914.25;5020128;28;20231;-72
2022/12/24 11:37:49;;;;;;;6.73;2.87;;;;;;;9.07;98.24;96906.69;5014094;28;20265;-70
2022/12/24 11:40:20;;;;;;;10.57;3.17;;;;;;;9.07;97.54;96893.47;5023453;28;20685;-72
2022/12/24 11:42:51;;;;;;;9.20;3.37;;;;;;;9.16;96.30;96883.66;5029379;28;20207;-70
2022/12/24 11:45:23;;;;;;;9.00;3.63;;;;;;;9.30;99.04;96885.47;5025776;28;20374;-71
2022/12/24 11:47:52;;;;;;;5.03;3.07;;;;;;;9.30;96.80;96884.66;4992006;28;20223;-70
2022/12/24 11:50:24;;;;;;;6.50;3.60;;;;;;;9.32;96.72;96886.09;5027494;28;20222;-71
2022/12/24 11:52:56;;;;;;;7.47;3.07;;;;;;;9.39;96.84;96888.84;5023765;28;20228;-69
2022/12/24 11:55:30;;;;;;;9.20;3.03;;;;;;;9.56;96.49;96881.53;5016746;28;20210;-71